No particular awareness of the weather is required.    There are no Weather-warnings


Meteo18 Weather Cam more information Meteo18 Weather Cam


Thunder radar more information blitzortung!


Rain radar more information rain snow radar


Visit our other weather sites:

Template documentation
and downloads

And another site



Weather Underground History page Text

Daily Summary for January 27, 2017 Units:  English    Metric   Both
« Previous Day
Next Day »
Daily Weekly Monthly Yearly Custom
  High: Low: Average:
Temperature: 50.4 °F 33.6 °F 42.1 °F
Dew Point: 39.9 °F 29.7 °F 35.4 °F
Humidity: 91 % 65 % 78 %
Wind Speed: 13 mph 0 mph 2.4 mph
Wind Gust: 17 mph - -
Wind:- - ESE
Pressure: 30 in 29.9 in -
Precipitation: 0 in    
Historical Graphs
 
 
Tabular Data for January 27, 2017
Time Temperature Dew Point Pressure Wind Wind Speed Wind Gust Humidity Rainfall Rate (Hourly)
00:02 35.2 °F 31.5 °F 30 in SSE 4 mph 17 mph 86 % 0 in
00:07 35.1 °F 31.3 °F 30 in SE 3 mph 13 mph 86 % 0 in
00:17 34.3 °F 30.9 °F 30 in East 2 mph 13 mph 87 % 0 in
00:22 34.3 °F 30.9 °F 30 in SSE 4 mph 9 mph 87 % 0 in
00:32 34.2 °F 30.7 °F 30 in Calm   12 mph 87 % 0 in
00:37 34.2 °F 30.4 °F 30 in ESE 2 mph 12 mph 86 % 0 in
00:42 34 °F 30.2 °F 30 in SE 1 mph 8 mph 86 % 0 in
00:57 33.6 °F 29.7 °F 30 in Calm   7 mph 85 % 0 in
01:02 33.6 °F 29.8 °F 30 in Calm   7 mph 86 % 0 in
01:07 33.6 °F 29.8 °F 30 in Calm   7 mph 86 % 0 in
01:18 33.6 °F 29.7 °F 30 in Calm   7 mph 85 % 0 in
01:22 33.6 °F 29.7 °F 30 in SSE 1 mph 7 mph 85 % 0 in
01:27 33.6 °F 29.7 °F 30 in SE 1 mph 6 mph 85 % 0 in
01:32 33.6 °F 29.7 °F 30 in Calm   6 mph 85 % 0 in
01:37 33.6 °F 29.8 °F 30 in SSE 3 mph 7 mph 86 % 0 in
01:42 34 °F 30.2 °F 30 in South 4 mph 7 mph 86 % 0 in
01:47 34 °F 30.2 °F 30 in SE 3 mph 9 mph 86 % 0 in
01:52 34 °F 30 °F 30 in SE 1 mph 9 mph 85 % 0 in
02:02 34.2 °F 30.4 °F 30 in SE 6 mph 6 mph 86 % 0 in
02:12 34.3 °F 30.6 °F 30 in SE 3 mph 7 mph 86 % 0 in
02:17 34.5 °F 30.7 °F 30 in SE 2 mph 9 mph 86 % 0 in
02:27 34.5 °F 31.1 °F 30 in SE 3 mph 9 mph 87 % 0 in
02:32 34.5 °F 31.1 °F 30 in ESE 1 mph 9 mph 87 % 0 in
02:37 34.3 °F 30.9 °F 30 in ESE 4 mph 7 mph 87 % 0 in
02:42 34.3 °F 30.9 °F 30 in SSE 1 mph 7 mph 87 % 0 in
02:47 34.3 °F 30.9 °F 30 in Calm   6 mph 87 % 0 in
02:57 34.2 °F 30.9 °F 30 in SSE 1 mph 4 mph 88 % 0 in
03:02 34.2 °F 30.9 °F 29.9 in Calm   4 mph 88 % 0 in
03:07 34.2 °F 30.9 °F 29.9 in Calm   4 mph 88 % 0 in
03:17 34 °F 30.7 °F 29.9 in SE 2 mph 3 mph 88 % 0 in
03:22 34 °F 30.7 °F 29.9 in SE 1 mph 3 mph 88 % 0 in
03:27 34 °F 31.1 °F 29.9 in ESE 1 mph 3 mph 89 % 0 in
03:32 34.2 °F 30.9 °F 29.9 in Calm   3 mph 88 % 0 in
03:47 34.2 °F 30.9 °F 29.9 in Calm   5 mph 88 % 0 in
03:52 34.2 °F 31.3 °F 29.9 in SW 1 mph 5 mph 89 % 0 in
03:57 34.2 °F 31.3 °F 29.9 in Calm   2 mph 89 % 0 in
04:02 34 °F 31.1 °F 29.9 in Calm   2 mph 89 % 0 in
04:22 34 °F 31.1 °F 29.9 in Calm   2 mph 89 % 0 in
04:27 34.2 °F 31.3 °F 29.9 in Calm   2 mph 89 % 0 in
04:32 34.2 °F 31.3 °F 29.9 in Calm   2 mph 89 % 0 in
04:37 34.2 °F 31.3 °F 29.9 in Calm   1 mph 89 % 0 in
04:42 34.3 °F 31.6 °F 29.9 in Calm   1 mph 90 % 0 in
04:52 34.3 °F 31.5 °F 29.9 in Calm   1 mph 89 % 0 in
04:57 34.5 °F 31.6 °F 29.9 in Calm   1 mph 89 % 0 in
05:02 34.5 °F 31.6 °F 29.9 in Calm   1 mph 89 % 0 in
05:12 34.9 °F 32 °F 29.9 in Calm     89 % 0 in
05:17 34.9 °F 32 °F 29.9 in Calm     89 % 0 in
05:22 34.9 °F 32 °F 29.9 in Calm   2 mph 89 % 0 in
05:27 34.7 °F 31.5 °F 29.9 in Calm   2 mph 88 % 0 in
05:32 34.2 °F 31.3 °F 29.9 in Calm   1 mph 89 % 0 in
05:42 34.5 °F 31.6 °F 29.9 in Calm   1 mph 89 % 0 in
05:47 34.3 °F 31.5 °F 29.9 in Calm   1 mph 89 % 0 in
05:52 34.2 °F 31.3 °F 29.9 in Calm   1 mph 89 % 0 in
06:02 33.6 °F 30.9 °F 29.9 in Calm   1 mph 90 % 0 in
06:07 33.6 °F 31.3 °F 29.9 in SSE 2 mph 2 mph 91 % 0 in
06:12 34.2 °F 31.8 °F 29.9 in Calm   3 mph 91 % 0 in
06:27 34.5 °F 31.8 °F 29.9 in SE 1 mph 3 mph 90 % 0 in
06:32 35.1 °F 32.4 °F 29.9 in Calm   3 mph 90 % 0 in
06:42 35.4 °F 32.2 °F 29.9 in ESE 1 mph 3 mph 88 % 0 in
06:52 35.4 °F 32.2 °F 29.9 in Calm   2 mph 88 % 0 in
07:02 35.4 °F 32.5 °F 29.9 in Calm   2 mph 89 % 0 in
07:12 35.2 °F 31.8 °F 29.9 in SSW 1 mph 5 mph 87 % 0 in
07:17 35.4 °F 32.7 °F 29.9 in SE 2 mph 5 mph 90 % 0 in
07:22 36 °F 32.7 °F 29.9 in Calm   5 mph 88 % 0 in
07:27 36 °F 32.7 °F 29.9 in Calm   5 mph 88 % 0 in
07:32 35.4 °F 32 °F 29.9 in Calm   5 mph 87 % 0 in
07:37 35.2 °F 32.4 °F 29.9 in SSW 2 mph 2 mph 89 % 0 in
07:42 35.6 °F 32.7 °F 29.9 in Calm   2 mph 89 % 0 in
07:47 35.8 °F 32.9 °F 29.9 in Calm   3 mph 89 % 0 in
07:52 35.8 °F 32.5 °F 29.9 in Calm   3 mph 88 % 0 in
07:57 36 °F 33.1 °F 29.9 in WSW 1 mph 2 mph 89 % 0 in
08:07 36.3 °F 33.4 °F 29.9 in Calm   1 mph 89 % 0 in
08:12 36.5 °F 33.3 °F 29.9 in ESE 1 mph 1 mph 88 % 0 in
08:17 37 °F 33.8 °F 29.9 in Calm   2 mph 88 % 0 in
08:22 37.2 °F 33.8 °F 29.9 in Calm   2 mph 87 % 0 in
08:27 37.2 °F 33.8 °F 30 in Calm   2 mph 87 % 0 in
08:32 37.2 °F 33.8 °F 30 in SE 1 mph 2 mph 87 % 0 in
08:42 37.6 °F 33.8 °F 30 in Calm   3 mph 86 % 0 in
08:47 37.9 °F 34.2 °F 30 in ESE 2 mph 3 mph 86 % 0 in
08:52 38.1 °F 34.3 °F 30 in Calm   3 mph 86 % 0 in
09:02 38.5 °F 34.3 °F 30 in Calm   2 mph 85 % 0 in
09:12 38.8 °F 34.7 °F 30 in Calm   3 mph 85 % 0 in
09:17 39 °F 34.9 °F 30 in Calm   1 mph 85 % 0 in
09:22 39.2 °F 35.1 °F 30 in Calm   1 mph 85 % 0 in
09:32 39.6 °F 35.4 °F 30 in Calm   1 mph 85 % 0 in
09:42 40.3 °F 35.8 °F 30 in Calm   2 mph 84 % 0 in
09:52 40.5 °F 35.8 °F 30 in Calm   3 mph 83 % 0 in
10:02 40.8 °F 36.1 °F 30 in Calm   3 mph 83 % 0 in
10:12 41.2 °F 36.5 °F 30 in Calm   2 mph 83 % 0 in
10:22 41.5 °F 36.7 °F 30 in SE 3 mph 4 mph 83 % 0 in
10:32 42.4 °F 37.4 °F 30 in ESE 1 mph 6 mph 82 % 0 in
10:37 42.6 °F 37.6 °F 30 in SE 3 mph 7 mph 82 % 0 in
10:42 43.3 °F 37.6 °F 30 in SE 3 mph 7 mph 80 % 0 in
10:47 43.5 °F 37.8 °F 30 in ESE 6 mph 11 mph 80 % 0 in
10:52 43.9 °F 38.1 °F 30 in East 3 mph 11 mph 80 % 0 in
11:02 44.4 °F 38.3 °F 30 in SE 9 mph 10 mph 79 % 0 in
11:12 45 °F 38.5 °F 30 in SE 6 mph 12 mph 78 % 0 in
11:17 45.1 °F 38.3 °F 30 in SSE 6 mph 16 mph 77 % 0 in
11:37 45.3 °F 38.8 °F 30 in SE 6 mph 12 mph 78 % 0 in
11:42 45.3 °F 38.8 °F 30 in SE 4 mph 12 mph 78 % 0 in
11:48 45.3 °F 38.8 °F 30 in SE 5 mph 10 mph 78 % 0 in
11:57 45.3 °F 38.8 °F 30 in SE 8 mph 12 mph 78 % 0 in
12:07 45.7 °F 39.2 °F 30 in ESE 5 mph 11 mph 78 % 0 in
12:12 45.9 °F 39.4 °F 30 in SE 2 mph 11 mph 78 % 0 in
12:22 46.2 °F 39.4 °F 30 in SE 5 mph 11 mph 77 % 0 in
12:32 46.9 °F 39.4 °F 29.9 in SE 9 mph 11 mph 75 % 0 in
12:42 47.7 °F 39.4 °F 29.9 in ESE 5 mph 15 mph 73 % 0 in
12:52 48 °F 39.7 °F 30 in SE 8 mph 14 mph 73 % 0 in
12:57 48 °F 39.4 °F 29.9 in SE 4 mph 14 mph 72 % 0 in
13:02 48.4 °F 39.4 °F 29.9 in ESE 4 mph 15 mph 71 % 0 in
13:12 48.4 °F 39.4 °F 29.9 in SE 4 mph 15 mph 71 % 0 in
13:17 48.6 °F 39.6 °F 29.9 in ESE 5 mph 15 mph 71 % 0 in
13:22 48.6 °F 39.9 °F 29.9 in SE 7 mph 15 mph 72 % 0 in
13:27 48.6 °F 39.6 °F 29.9 in SE 8 mph 15 mph 71 % 0 in
13:32 48.7 °F 39.4 °F 29.9 in SSE 10 mph 14 mph 70 % 0 in
13:37 48.7 °F 39.4 °F 29.9 in SE 5 mph 14 mph 70 % 0 in
13:47 48.9 °F 39.9 °F 29.9 in ESE 13 mph 13 mph 71 % 0 in
13:57 48.9 °F 39.9 °F 29.9 in SE 2 mph 13 mph 71 % 0 in
14:02 48.9 °F 39.6 °F 29.9 in SE 4 mph 13 mph 70 % 0 in
14:07 48.9 °F 39.6 °F 29.9 in SE 4 mph 10 mph 70 % 0 in
14:12 48.9 °F 39.6 °F 29.9 in ESE 7 mph 10 mph 70 % 0 in
14:17 48.9 °F 39.6 °F 29.9 in ESE 5 mph 10 mph 70 % 0 in
14:22 48.9 °F 39.6 °F 29.9 in SE 3 mph 9 mph 70 % 0 in
14:27 49.1 °F 39.7 °F 29.9 in SE 5 mph 9 mph 70 % 0 in
14:37 49.3 °F 39.6 °F 29.9 in SE 6 mph 10 mph 69 % 0 in
14:42 49.5 °F 39.7 °F 29.9 in SSE 4 mph 10 mph 69 % 0 in
14:52 49.8 °F 39.4 °F 29.9 in SSE 5 mph 12 mph 67 % 0 in
15:02 50.2 °F 39.6 °F 29.9 in SE 6 mph 12 mph 67 % 0 in
15:12 50.4 °F 39.4 °F 29.9 in SE 3 mph 12 mph 66 % 0 in
15:17 50.2 °F 39.2 °F 29.9 in SE 4 mph 14 mph 66 % 0 in
15:22 50.2 °F 39.2 °F 29.9 in SE 6 mph 14 mph 66 % 0 in
15:27 50.2 °F 39.2 °F 29.9 in ESE 6 mph 16 mph 66 % 0 in
15:32 50.4 °F 39 °F 29.9 in SE 6 mph 16 mph 65 % 0 in
15:42 50.4 °F 39 °F 29.9 in ESE 9 mph 15 mph 65 % 0 in
15:47 50.2 °F 39.2 °F 29.9 in ESE 5 mph 15 mph 66 % 0 in
15:52 49.8 °F 38.8 °F 29.9 in SE 7 mph 15 mph 66 % 0 in
15:57 49.8 °F 39.4 °F 29.9 in ESE 5 mph 15 mph 67 % 0 in
16:02 49.6 °F 39.2 °F 29.9 in ESE 6 mph 11 mph 67 % 0 in
16:12 49.3 °F 39.2 °F 29.9 in East 3 mph 11 mph 68 % 0 in
16:17 48.7 °F 39 °F 29.9 in ESE 3 mph 10 mph 69 % 0 in
16:22 48.6 °F 38.8 °F 29.9 in SSE 1 mph 9 mph 69 % 0 in
16:27 48.4 °F 38.7 °F 29.9 in East 2 mph 8 mph 69 % 0 in
16:32 48.2 °F 38.5 °F 29.9 in East 3 mph 7 mph 69 % 0 in
16:37 48 °F 38.7 °F 29.9 in East 2 mph 7 mph 70 % 0 in
16:42 47.8 °F 38.5 °F 29.9 in ESE 1 mph 7 mph 70 % 0 in
16:47 47.7 °F 38.3 °F 29.9 in East 3 mph 6 mph 70 % 0 in
16:57 47.5 °F 38.1 °F 29.9 in ESE 2 mph 6 mph 70 % 0 in
17:02 47.3 °F 37.9 °F 29.9 in ESE 4 mph 7 mph 70 % 0 in
17:12 47.1 °F 38.1 °F 29.9 in ESE 2 mph 7 mph 71 % 0 in
17:17 47.1 °F 37.8 °F 29.9 in SE 5 mph 6 mph 70 % 0 in
17:22 47.1 °F 37.8 °F 29.9 in ESE 2 mph 7 mph 70 % 0 in
17:27 46.8 °F 37.9 °F 29.9 in SE 2 mph 10 mph 71 % 0 in
17:32 46.4 °F 37.9 °F 29.9 in East 3 mph 10 mph 72 % 0 in
17:37 46.2 °F 37.8 °F 29.9 in East 4 mph 10 mph 72 % 0 in
17:42 46.2 °F 37.8 °F 29.9 in ESE 3 mph 6 mph 72 % 0 in
17:47 46 °F 37.6 °F 29.9 in SE 3 mph 7 mph 72 % 0 in
17:52 46 °F 37.6 °F 29.9 in SE 3 mph 7 mph 72 % 0 in
17:57 46 °F 37.6 °F 29.9 in ESE 8 mph 8 mph 72 % 0 in
18:02 46 °F 37.6 °F 29.9 in SE 3 mph 8 mph 72 % 0 in
18:12 45.7 °F 37.2 °F 29.9 in SE 3 mph 8 mph 72 % 0 in
18:17 45.9 °F 37.4 °F 29.9 in East 5 mph 8 mph 72 % 0 in
18:22 45.7 °F 37.2 °F 29.9 in SE 4 mph 10 mph 72 % 0 in
18:32 45.5 °F 37.4 °F 30 in ESE 2 mph 10 mph 73 % 0 in
18:42 45.1 °F 37 °F 30 in SE 3 mph 10 mph 73 % 0 in
18:47 45 °F 36.9 °F 30 in ESE 3 mph 10 mph 73 % 0 in
18:57 44.6 °F 37.2 °F 30 in ESE 4 mph 6 mph 75 % 0 in
19:02 44.8 °F 37 °F 30 in East 2 mph 6 mph 74 % 0 in
19:12 44.8 °F 37.4 °F 30 in East 2 mph 7 mph 75 % 0 in
19:17 44.8 °F 37 °F 30 in East 3 mph 7 mph 74 % 0 in
19:22 45 °F 37.2 °F 30 in ESE 2 mph 5 mph 74 % 0 in
19:27 45 °F 37.2 °F 30 in ESE 1 mph 5 mph 74 % 0 in
19:32 45 °F 37.2 °F 30 in ESE 1 mph 5 mph 74 % 0 in
19:37 45.1 °F 37.4 °F 30 in ESE 2 mph 3 mph 74 % 0 in
19:42 45.3 °F 37.2 °F 30 in East 1 mph 3 mph 73 % 0 in
19:47 45.9 °F 37.8 °F 30 in ESE 3 mph 4 mph 73 % 0 in
19:52 46.2 °F 37.8 °F 30 in East 2 mph 4 mph 72 % 0 in
19:57 46 °F 37.6 °F 30 in ESE 1 mph 6 mph 72 % 0 in
20:02 45.7 °F 37.2 °F 30 in Calm   6 mph 72 % 0 in
20:12 45.7 °F 37.6 °F 30 in East 1 mph 6 mph 73 % 0 in
20:17 45.9 °F 37.4 °F 30 in ESE 1 mph 4 mph 72 % 0 in
20:22 46 °F 37.2 °F 30 in East 5 mph 5 mph 71 % 0 in
20:27 46.4 °F 37.2 °F 30 in SE 3 mph 4 mph 70 % 0 in
20:32 46.4 °F 37.2 °F 30 in Calm   6 mph 70 % 0 in
20:37 46 °F 36.9 °F 30 in Calm   6 mph 70 % 0 in
20:42 45.5 °F 36.7 °F 30 in ENE 1 mph 6 mph 71 % 0 in
20:47 45.1 °F 36.7 °F 30 in ENE 3 mph 6 mph 72 % 0 in
20:52 45.3 °F 36.9 °F 30 in East 1 mph 4 mph 72 % 0 in
20:57 45.1 °F 36.7 °F 30 in East 2 mph 4 mph 72 % 0 in
21:02 45.3 °F 36.9 °F 30 in ESE 1 mph 4 mph 72 % 0 in
21:07 45.3 °F 36.9 °F 30 in ESE 1 mph 4 mph 72 % 0 in
21:12 45.3 °F 36.9 °F 30 in ENE 3 mph 4 mph 72 % 0 in
21:17 45.3 °F 36.5 °F 30 in ESE 2 mph 7 mph 71 % 0 in
21:22 45.1 °F 36.7 °F 30 in ESE 1 mph 7 mph 72 % 0 in
21:27 45 °F 36.5 °F 30 in SE 2 mph 7 mph 72 % 0 in
21:32 45 °F 36.5 °F 30 in East 1 mph 7 mph 72 % 0 in
21:37 45 °F 36.5 °F 30 in SE 1 mph 7 mph 72 % 0 in
21:42 45 °F 36.5 °F 30 in ESE 1 mph 7 mph 72 % 0 in
21:47 45 °F 36.5 °F 30 in East 1 mph 4 mph 72 % 0 in
21:52 45 °F 36.5 °F 30 in East 2 mph 4 mph 72 % 0 in
22:02 45 °F 36.1 °F 30 in ESE 1 mph 4 mph 71 % 0 in
22:12 45.5 °F 36.3 °F 30 in ESE 3 mph 4 mph 70 % 0 in
22:17 45.7 °F 36.1 °F 30 in East 1 mph 5 mph 69 % 0 in
22:22 45.9 °F 36.3 °F 30 in ESE 1 mph 5 mph 69 % 0 in
22:27 46 °F 36.1 °F 30 in East 5 mph 5 mph 68 % 0 in
22:32 46.2 °F 36 °F 30 in East 3 mph 6 mph 67 % 0 in
22:37 46.4 °F 36 °F 30 in East 3 mph 6 mph 67 % 0 in
22:42 46.6 °F 36.1 °F 30 in East 3 mph 6 mph 67 % 0 in
22:52 46.6 °F 36.1 °F 30 in ESE 1 mph 7 mph 67 % 0 in
22:57 46.4 °F 36 °F 30 in SE 2 mph 7 mph 67 % 0 in
23:02 46.2 °F 36.3 °F 30 in East 2 mph 6 mph 68 % 0 in
23:07 46.2 °F 36.3 °F 30 in SE 2 mph 6 mph 68 % 0 in
23:12 46.6 °F 36.1 °F 30 in ESE 3 mph 6 mph 67 % 0 in
23:17 46.6 °F 36.1 °F 30 in ESE 3 mph 6 mph 67 % 0 in
23:22 46.8 °F 36.3 °F 30 in East 2 mph 6 mph 67 % 0 in
23:27 46.8 °F 36 °F 30 in East 4 mph 6 mph 66 % 0 in
23:32 46.8 °F 36.3 °F 30 in East 2 mph 6 mph 67 % 0 in
23:37 46.8 °F 36.3 °F 30 in ESE 2 mph 6 mph 67 % 0 in
23:52 46 °F 36.1 °F 30 in ENE 3 mph 8 mph 68 % 0 in
Meteo18
Compliments of Weather Underground - 4 mb

Script developed by  Jim McMurry - jmcmurry@mwt.net Adapted for the template by  Wim van der Kuil - Leuven-Template.eu

You find our weather info also at:

European Weather Network

Weather Underground

Equipment we use:

Weather-station
Davis Vue

Weather-program
Meteohub

Weather-server
Raspberry PI 2 B+

Provider
1 and 1

Davis Vue

Meteohub

Raspberry PI 2 B+

1 and 1